sensor_id;sensor_type;location;lat;lon;timestamp;P1;durP1;ratioP1;P2;durP2;ratioP2
65315;SDS011;51920;53.952;10.292;2022-11-20T00:00:43;11.10;;;5.37;;
65315;SDS011;51920;53.952;10.292;2022-11-20T00:03:09;11.17;;;6.10;;
65315;SDS011;51920;53.952;10.292;2022-11-20T00:05:34;12.52;;;5.95;;
65315;SDS011;51920;53.952;10.292;2022-11-20T00:07:59;11.40;;;5.80;;
65315;SDS011;51920;53.952;10.292;2022-11-20T00:10:25;12.90;;;5.90;;
65315;SDS011;51920;53.952;10.292;2022-11-20T00:12:51;12.18;;;5.05;;
65315;SDS011;51920;53.952;10.292;2022-11-20T00:15:17;10.63;;;5.90;;
65315;SDS011;51920;53.952;10.292;2022-11-20T00:17:42;10.13;;;5.40;;
65315;SDS011;51920;53.952;10.292;2022-11-20T00:20:08;9.07;;;5.13;;
65315;SDS011;51920;53.952;10.292;2022-11-20T00:22:33;11.10;;;5.00;;
65315;SDS011;51920;53.952;10.292;2022-11-20T00:24:59;9.20;;;4.78;;
65315;SDS011;51920;53.952;10.292;2022-11-20T00:27:24;9.03;;;4.87;;
65315;SDS011;51920;53.952;10.292;2022-11-20T00:29:50;7.83;;;4.60;;
65315;SDS011;51920;53.952;10.292;2022-11-20T00:32:15;9.67;;;5.07;;
65315;SDS011;51920;53.952;10.292;2022-11-20T00:34:40;9.32;;;4.80;;
65315;SDS011;51920;53.952;10.292;2022-11-20T00:37:06;9.57;;;5.07;;
65315;SDS011;51920;53.952;10.292;2022-11-20T00:39:31;9.47;;;5.10;;
65315;SDS011;51920;53.952;10.292;2022-11-20T00:41:56;9.60;;;4.87;;
65315;SDS011;51920;53.952;10.292;2022-11-20T00:44:22;9.57;;;4.80;;
65315;SDS011;51920;53.952;10.292;2022-11-20T00:46:47;12.70;;;5.47;;
65315;SDS011;51920;53.952;10.292;2022-11-20T00:49:13;8.30;;;4.87;;
65315;SDS011;51920;53.952;10.292;2022-11-20T00:51:38;10.97;;;5.40;;
65315;SDS011;51920;53.952;10.292;2022-11-20T00:54:04;9.43;;;5.00;;
65315;SDS011;51920;53.952;10.292;2022-11-20T00:56:29;10.23;;;5.30;;
65315;SDS011;51920;53.952;10.292;2022-11-20T00:58:55;11.38;;;5.20;;
65315;SDS011;51920;53.952;10.292;2022-11-20T01:01:21;9.53;;;4.70;;
65315;SDS011;51920;53.952;10.292;2022-11-20T01:03:53;9.23;;;4.78;;
65315;SDS011;51920;53.952;10.292;2022-11-20T01:06:20;10.18;;;4.95;;
65315;SDS011;51920;53.952;10.292;2022-11-20T01:08:48;9.23;;;4.27;;
65315;SDS011;51920;53.952;10.292;2022-11-20T01:11:16;9.27;;;5.00;;
65315;SDS011;51920;53.952;10.292;2022-11-20T01:13:44;8.80;;;4.65;;
65315;SDS011;51920;53.952;10.292;2022-11-20T01:19:09;8.48;;;4.60;;
65315;SDS011;51920;53.952;10.292;2022-11-20T01:21:37;8.47;;;4.47;;
65315;SDS011;51920;53.952;10.292;2022-11-20T01:24:04;8.48;;;4.43;;
65315;SDS011;51920;53.952;10.292;2022-11-20T01:26:33;10.23;;;5.30;;
65315;SDS011;51920;53.952;10.292;2022-11-20T01:29:00;8.50;;;4.70;;
65315;SDS011;51920;53.952;10.292;2022-11-20T01:31:29;8.80;;;4.77;;
65315;SDS011;51920;53.952;10.292;2022-11-20T01:34:00;7.90;;;4.50;;
65315;SDS011;51920;53.952;10.292;2022-11-20T01:36:28;8.38;;;4.10;;
65315;SDS011;51920;53.952;10.292;2022-11-20T01:38:55;9.18;;;4.97;;
65315;SDS011;51920;53.952;10.292;2022-11-20T01:41:22;9.97;;;4.47;;
65315;SDS011;51920;53.952;10.292;2022-11-20T01:44:09;8.95;;;4.30;;
65315;SDS011;51920;53.952;10.292;2022-11-20T01:46:38;9.18;;;4.60;;
65315;SDS011;51920;53.952;10.292;2022-11-20T01:51:48;9.27;;;4.70;;
65315;SDS011;51920;53.952;10.292;2022-11-20T01:54:16;9.83;;;4.70;;
65315;SDS011;51920;53.952;10.292;2022-11-20T01:56:45;7.82;;;4.53;;
65315;SDS011;51920;53.952;10.292;2022-11-20T01:59:16;9.63;;;5.00;;
65315;SDS011;51920;53.952;10.292;2022-11-20T02:01:43;9.88;;;4.80;;
65315;SDS011;51920;53.952;10.292;2022-11-20T02:04:09;10.33;;;5.10;;
65315;SDS011;51920;53.952;10.292;2022-11-20T02:06:38;11.63;;;5.30;;
65315;SDS011;51920;53.952;10.292;2022-11-20T02:09:07;10.52;;;5.47;;
65315;SDS011;51920;53.952;10.292;2022-11-20T02:11:33;10.87;;;5.57;;
65315;SDS011;51920;53.952;10.292;2022-11-20T02:13:58;10.83;;;5.37;;
65315;SDS011;51920;53.952;10.292;2022-11-20T02:16:25;12.32;;;5.22;;
65315;SDS011;51920;53.952;10.292;2022-11-20T02:18:53;9.77;;;5.03;;
65315;SDS011;51920;53.952;10.292;2022-11-20T02:24:25;12.90;;;5.63;;
65315;SDS011;51920;53.952;10.292;2022-11-20T02:29:53;11.15;;;5.35;;
65315;SDS011;51920;53.952;10.292;2022-11-20T02:32:23;12.23;;;5.43;;
65315;SDS011;51920;53.952;10.292;2022-11-20T02:34:50;10.13;;;5.20;;
65315;SDS011;51920;53.952;10.292;2022-11-20T02:37:15;11.70;;;5.88;;
65315;SDS011;51920;53.952;10.292;2022-11-20T02:39:41;9.48;;;5.10;;
65315;SDS011;51920;53.952;10.292;2022-11-20T02:42:09;9.93;;;5.00;;
65315;SDS011;51920;53.952;10.292;2022-11-20T02:44:35;11.15;;;5.47;;
65315;SDS011;51920;53.952;10.292;2022-11-20T02:47:00;9.80;;;5.20;;
65315;SDS011;51920;53.952;10.292;2022-11-20T02:49:25;11.63;;;5.70;;
65315;SDS011;51920;53.952;10.292;2022-11-20T02:51:51;11.23;;;5.50;;
65315;SDS011;51920;53.952;10.292;2022-11-20T02:54:16;11.85;;;5.63;;
65315;SDS011;51920;53.952;10.292;2022-11-20T02:56:42;11.37;;;5.57;;
65315;SDS011;51920;53.952;10.292;2022-11-20T02:59:08;12.65;;;5.55;;
65315;SDS011;51920;53.952;10.292;2022-11-20T03:01:34;11.57;;;5.40;;
65315;SDS011;51920;53.952;10.292;2022-11-20T03:04:00;11.13;;;5.80;;
65315;SDS011;51920;53.952;10.292;2022-11-20T03:06:25;11.70;;;5.60;;
65315;SDS011;51920;53.952;10.292;2022-11-20T03:08:51;12.70;;;5.77;;
65315;SDS011;51920;53.952;10.292;2022-11-20T03:11:16;9.87;;;5.13;;
65315;SDS011;51920;53.952;10.292;2022-11-20T03:13:42;11.05;;;5.55;;
65315;SDS011;51920;53.952;10.292;2022-11-20T03:16:08;11.70;;;5.07;;
65315;SDS011;51920;53.952;10.292;2022-11-20T03:18:36;10.70;;;5.28;;
65315;SDS011;51920;53.952;10.292;2022-11-20T03:21:02;10.40;;;5.30;;
65315;SDS011;51920;53.952;10.292;2022-11-20T03:23:29;14.23;;;5.47;;
65315;SDS011;51920;53.952;10.292;2022-11-20T03:25:56;11.05;;;5.40;;
65315;SDS011;51920;53.952;10.292;2022-11-20T03:28:31;10.48;;;5.40;;
65315;SDS011;51920;53.952;10.292;2022-11-20T03:30:56;10.63;;;4.90;;
65315;SDS011;51920;53.952;10.292;2022-11-20T03:33:22;10.80;;;5.87;;
65315;SDS011;51920;53.952;10.292;2022-11-20T03:35:47;11.67;;;5.30;;
65315;SDS011;51920;53.952;10.292;2022-11-20T03:38:12;10.03;;;4.90;;
65315;SDS011;51920;53.952;10.292;2022-11-20T03:40:38;10.60;;;5.07;;
65315;SDS011;51920;53.952;10.292;2022-11-20T03:43:03;10.67;;;4.67;;
65315;SDS011;51920;53.952;10.292;2022-11-20T03:45:28;11.97;;;5.10;;
65315;SDS011;51920;53.952;10.292;2022-11-20T03:47:54;10.63;;;4.97;;
65315;SDS011;51920;53.952;10.292;2022-11-20T03:50:19;9.83;;;4.70;;
65315;SDS011;51920;53.952;10.292;2022-11-20T03:52:44;8.03;;;4.67;;
65315;SDS011;51920;53.952;10.292;2022-11-20T03:55:10;8.97;;;4.83;;
65315;SDS011;51920;53.952;10.292;2022-11-20T03:57:35;9.87;;;4.70;;
65315;SDS011;51920;53.952;10.292;2022-11-20T04:00:00;10.57;;;4.73;;
65315;SDS011;51920;53.952;10.292;2022-11-20T04:02:29;8.75;;;4.40;;
65315;SDS011;51920;53.952;10.292;2022-11-20T04:04:54;8.83;;;4.67;;
65315;SDS011;51920;53.952;10.292;2022-11-20T04:07:20;8.13;;;4.27;;
65315;SDS011;51920;53.952;10.292;2022-11-20T04:09:46;11.40;;;5.10;;
65315;SDS011;51920;53.952;10.292;2022-11-20T04:12:11;9.30;;;5.00;;
65315;SDS011;51920;53.952;10.292;2022-11-20T04:14:36;8.93;;;4.40;;
65315;SDS011;51920;53.952;10.292;2022-11-20T04:17:03;8.33;;;4.40;;
65315;SDS011;51920;53.952;10.292;2022-11-20T04:19:28;8.80;;;4.03;;
65315;SDS011;51920;53.952;10.292;2022-11-20T04:21:54;8.73;;;4.60;;
65315;SDS011;51920;53.952;10.292;2022-11-20T04:24:19;8.40;;;4.40;;
65315;SDS011;51920;53.952;10.292;2022-11-20T04:26:44;8.32;;;4.18;;
65315;SDS011;51920;53.952;10.292;2022-11-20T04:29:10;7.93;;;4.07;;
65315;SDS011;51920;53.952;10.292;2022-11-20T04:31:36;9.27;;;4.32;;
65315;SDS011;51920;53.952;10.292;2022-11-20T04:34:03;9.17;;;4.27;;
65315;SDS011;51920;53.952;10.292;2022-11-20T04:36:30;9.25;;;4.55;;
65315;SDS011;51920;53.952;10.292;2022-11-20T04:38:58;9.03;;;4.70;;
65315;SDS011;51920;53.952;10.292;2022-11-20T04:41:29;8.10;;;4.50;;
65315;SDS011;51920;53.952;10.292;2022-11-20T04:43:58;8.30;;;4.10;;
65315;SDS011;51920;53.952;10.292;2022-11-20T04:46:28;9.10;;;4.32;;
65315;SDS011;51920;53.952;10.292;2022-11-20T04:48:54;10.10;;;4.33;;
65315;SDS011;51920;53.952;10.292;2022-11-20T04:51:20;9.32;;;4.60;;
65315;SDS011;51920;53.952;10.292;2022-11-20T04:53:45;9.30;;;4.27;;
65315;SDS011;51920;53.952;10.292;2022-11-20T04:56:11;9.03;;;4.30;;
65315;SDS011;51920;53.952;10.292;2022-11-20T04:58:37;9.18;;;4.80;;
65315;SDS011;51920;53.952;10.292;2022-11-20T05:01:09;7.22;;;4.50;;
65315;SDS011;51920;53.952;10.292;2022-11-20T05:03:39;9.77;;;4.30;;
65315;SDS011;51920;53.952;10.292;2022-11-20T05:06:06;8.10;;;4.10;;
65315;SDS011;51920;53.952;10.292;2022-11-20T05:08:32;7.67;;;4.13;;
65315;SDS011;51920;53.952;10.292;2022-11-20T05:11:32;8.85;;;4.20;;
65315;SDS011;51920;53.952;10.292;2022-11-20T05:13:50;10.07;;;4.97;;
65315;SDS011;51920;53.952;10.292;2022-11-20T05:16:21;8.60;;;3.97;;
65315;SDS011;51920;53.952;10.292;2022-11-20T05:18:47;7.50;;;4.55;;
65315;SDS011;51920;53.952;10.292;2022-11-20T05:21:13;11.13;;;4.70;;
65315;SDS011;51920;53.952;10.292;2022-11-20T05:23:39;8.57;;;4.15;;
65315;SDS011;51920;53.952;10.292;2022-11-20T05:26:06;9.93;;;4.90;;
65315;SDS011;51920;53.952;10.292;2022-11-20T05:28:33;8.10;;;4.30;;
65315;SDS011;51920;53.952;10.292;2022-11-20T05:31:06;9.48;;;4.80;;
65315;SDS011;51920;53.952;10.292;2022-11-20T05:33:33;11.10;;;5.03;;
65315;SDS011;51920;53.952;10.292;2022-11-20T05:35:59;7.93;;;4.00;;
65315;SDS011;51920;53.952;10.292;2022-11-20T05:38:25;8.10;;;4.17;;
65315;SDS011;51920;53.952;10.292;2022-11-20T05:40:51;11.38;;;4.47;;
65315;SDS011;51920;53.952;10.292;2022-11-20T05:43:16;8.23;;;4.33;;
65315;SDS011;51920;53.952;10.292;2022-11-20T05:45:41;9.97;;;4.60;;
65315;SDS011;51920;53.952;10.292;2022-11-20T05:48:06;8.67;;;4.70;;
65315;SDS011;51920;53.952;10.292;2022-11-20T05:50:32;11.90;;;4.87;;
65315;SDS011;51920;53.952;10.292;2022-11-20T05:52:58;9.13;;;4.40;;
65315;SDS011;51920;53.952;10.292;2022-11-20T05:55:24;9.43;;;4.55;;
65315;SDS011;51920;53.952;10.292;2022-11-20T05:57:50;8.30;;;4.57;;
65315;SDS011;51920;53.952;10.292;2022-11-20T06:00:15;10.10;;;4.73;;
65315;SDS011;51920;53.952;10.292;2022-11-20T06:03:06;8.70;;;4.43;;
65315;SDS011;51920;53.952;10.292;2022-11-20T06:05:33;8.03;;;4.40;;
65315;SDS011;51920;53.952;10.292;2022-11-20T06:08:00;12.57;;;4.57;;
65315;SDS011;51920;53.952;10.292;2022-11-20T06:10:28;7.28;;;4.60;;
65315;SDS011;51920;53.952;10.292;2022-11-20T06:12:53;9.10;;;4.43;;
65315;SDS011;51920;53.952;10.292;2022-11-20T06:15:18;8.27;;;4.70;;
65315;SDS011;51920;53.952;10.292;2022-11-20T06:17:44;9.07;;;4.80;;
65315;SDS011;51920;53.952;10.292;2022-11-20T06:20:09;8.10;;;4.60;;
65315;SDS011;51920;53.952;10.292;2022-11-20T06:22:35;9.90;;;4.40;;
65315;SDS011;51920;53.952;10.292;2022-11-20T06:25:00;9.43;;;4.57;;
65315;SDS011;51920;53.952;10.292;2022-11-20T06:27:26;10.60;;;4.43;;
65315;SDS011;51920;53.952;10.292;2022-11-20T06:29:52;8.70;;;4.38;;
65315;SDS011;51920;53.952;10.292;2022-11-20T06:32:17;7.47;;;4.00;;
65315;SDS011;51920;53.952;10.292;2022-11-20T06:34:42;8.37;;;5.13;;
65315;SDS011;51920;53.952;10.292;2022-11-20T06:37:08;7.10;;;4.15;;
65315;SDS011;51920;53.952;10.292;2022-11-20T06:39:33;8.37;;;4.47;;
65315;SDS011;51920;53.952;10.292;2022-11-20T06:41:59;9.30;;;4.47;;
65315;SDS011;51920;53.952;10.292;2022-11-20T06:44:24;10.87;;;4.97;;
65315;SDS011;51920;53.952;10.292;2022-11-20T06:46:50;10.52;;;5.00;;
65315;SDS011;51920;53.952;10.292;2022-11-20T06:49:15;11.33;;;4.77;;
65315;SDS011;51920;53.952;10.292;2022-11-20T06:51:41;11.13;;;5.10;;
65315;SDS011;51920;53.952;10.292;2022-11-20T06:54:06;9.53;;;5.17;;
65315;SDS011;51920;53.952;10.292;2022-11-20T06:56:31;9.75;;;5.10;;
65315;SDS011;51920;53.952;10.292;2022-11-20T06:58:57;10.80;;;5.40;;
65315;SDS011;51920;53.952;10.292;2022-11-20T07:01:22;9.50;;;5.33;;
65315;SDS011;51920;53.952;10.292;2022-11-20T07:03:49;9.37;;;5.13;;
65315;SDS011;51920;53.952;10.292;2022-11-20T07:06:15;10.20;;;5.70;;
65315;SDS011;51920;53.952;10.292;2022-11-20T07:08:41;10.90;;;5.03;;
65315;SDS011;51920;53.952;10.292;2022-11-20T07:11:06;11.13;;;5.00;;
65315;SDS011;51920;53.952;10.292;2022-11-20T07:13:32;10.95;;;5.32;;
65315;SDS011;51920;53.952;10.292;2022-11-20T07:16:02;10.30;;;4.90;;
65315;SDS011;51920;53.952;10.292;2022-11-20T07:18:29;10.32;;;5.30;;
65315;SDS011;51920;53.952;10.292;2022-11-20T07:20:54;12.57;;;6.18;;
65315;SDS011;51920;53.952;10.292;2022-11-20T07:23:20;11.77;;;5.60;;
65315;SDS011;51920;53.952;10.292;2022-11-20T07:25:46;11.90;;;5.93;;
65315;SDS011;51920;53.952;10.292;2022-11-20T07:28:12;11.40;;;5.77;;
65315;SDS011;51920;53.952;10.292;2022-11-20T07:30:37;11.93;;;5.87;;
65315;SDS011;51920;53.952;10.292;2022-11-20T07:33:03;10.40;;;5.63;;
65315;SDS011;51920;53.952;10.292;2022-11-20T07:35:28;10.75;;;5.18;;
65315;SDS011;51920;53.952;10.292;2022-11-20T07:37:53;10.80;;;5.40;;
65315;SDS011;51920;53.952;10.292;2022-11-20T07:40:19;9.60;;;5.00;;
65315;SDS011;51920;53.952;10.292;2022-11-20T07:42:51;8.85;;;5.13;;
65315;SDS011;51920;53.952;10.292;2022-11-20T07:45:18;9.90;;;4.90;;
65315;SDS011;51920;53.952;10.292;2022-11-20T07:47:45;11.40;;;5.07;;
65315;SDS011;51920;53.952;10.292;2022-11-20T07:50:11;11.38;;;5.68;;
65315;SDS011;51920;53.952;10.292;2022-11-20T07:52:37;9.05;;;5.00;;
65315;SDS011;51920;53.952;10.292;2022-11-20T07:55:03;9.03;;;5.33;;
65315;SDS011;51920;53.952;10.292;2022-11-20T07:57:29;11.07;;;5.80;;
65315;SDS011;51920;53.952;10.292;2022-11-20T07:59:54;9.80;;;5.77;;
65315;SDS011;51920;53.952;10.292;2022-11-20T08:02:19;9.70;;;5.03;;
65315;SDS011;51920;53.952;10.292;2022-11-20T08:04:45;9.60;;;5.50;;
65315;SDS011;51920;53.952;10.292;2022-11-20T08:07:10;10.00;;;5.00;;
65315;SDS011;51920;53.952;10.292;2022-11-20T08:09:35;12.10;;;6.60;;
65315;SDS011;51920;53.952;10.292;2022-11-20T08:12:01;13.03;;;6.50;;
65315;SDS011;51920;53.952;10.292;2022-11-20T08:14:45;13.48;;;6.45;;
65315;SDS011;51920;53.952;10.292;2022-11-20T08:20:01;14.05;;;6.60;;
65315;SDS011;51920;53.952;10.292;2022-11-20T08:22:27;13.30;;;6.47;;
65315;SDS011;51920;53.952;10.292;2022-11-20T08:24:52;10.97;;;5.90;;
65315;SDS011;51920;53.952;10.292;2022-11-20T08:27:17;12.77;;;6.60;;
65315;SDS011;51920;53.952;10.292;2022-11-20T08:29:43;33.10;;;13.70;;
65315;SDS011;51920;53.952;10.292;2022-11-20T08:32:08;19.37;;;8.47;;
65315;SDS011;51920;53.952;10.292;2022-11-20T08:34:33;17.00;;;7.23;;
65315;SDS011;51920;53.952;10.292;2022-11-20T08:36:59;12.57;;;6.50;;
65315;SDS011;51920;53.952;10.292;2022-11-20T08:39:24;12.00;;;6.43;;
65315;SDS011;51920;53.952;10.292;2022-11-20T08:41:49;12.73;;;6.27;;
65315;SDS011;51920;53.952;10.292;2022-11-20T08:44:15;11.55;;;6.43;;
65315;SDS011;51920;53.952;10.292;2022-11-20T08:46:41;11.70;;;6.03;;
65315;SDS011;51920;53.952;10.292;2022-11-20T08:49:09;12.68;;;6.55;;
65315;SDS011;51920;53.952;10.292;2022-11-20T08:51:35;14.40;;;6.50;;
65315;SDS011;51920;53.952;10.292;2022-11-20T08:54:01;10.77;;;5.88;;
65315;SDS011;51920;53.952;10.292;2022-11-20T08:56:27;12.83;;;6.57;;
65315;SDS011;51920;53.952;10.292;2022-11-20T08:58:52;11.23;;;5.80;;
65315;SDS011;51920;53.952;10.292;2022-11-20T09:01:18;14.97;;;6.63;;
65315;SDS011;51920;53.952;10.292;2022-11-20T09:03:45;19.15;;;7.93;;
65315;SDS011;51920;53.952;10.292;2022-11-20T09:06:10;13.80;;;6.67;;
65315;SDS011;51920;53.952;10.292;2022-11-20T09:08:36;17.77;;;7.27;;
65315;SDS011;51920;53.952;10.292;2022-11-20T09:11:01;14.55;;;6.50;;
65315;SDS011;51920;53.952;10.292;2022-11-20T09:13:28;16.00;;;7.20;;
65315;SDS011;51920;53.952;10.292;2022-11-20T09:15:54;14.43;;;7.53;;
65315;SDS011;51920;53.952;10.292;2022-11-20T09:18:21;15.63;;;7.32;;
65315;SDS011;51920;53.952;10.292;2022-11-20T09:20:47;12.40;;;6.07;;
65315;SDS011;51920;53.952;10.292;2022-11-20T09:23:12;10.60;;;5.40;;
65315;SDS011;51920;53.952;10.292;2022-11-20T09:25:38;10.63;;;6.20;;
65315;SDS011;51920;53.952;10.292;2022-11-20T09:28:08;15.02;;;7.50;;
65315;SDS011;51920;53.952;10.292;2022-11-20T09:30:45;13.05;;;6.82;;
65315;SDS011;51920;53.952;10.292;2022-11-20T09:33:11;11.93;;;6.33;;
65315;SDS011;51920;53.952;10.292;2022-11-20T09:35:44;13.43;;;6.57;;
65315;SDS011;51920;53.952;10.292;2022-11-20T09:38:09;14.43;;;6.47;;
65315;SDS011;51920;53.952;10.292;2022-11-20T09:40:40;11.40;;;5.82;;
65315;SDS011;51920;53.952;10.292;2022-11-20T09:43:49;11.93;;;6.20;;
65315;SDS011;51920;53.952;10.292;2022-11-20T09:46:29;12.27;;;5.95;;
65315;SDS011;51920;53.952;10.292;2022-11-20T09:51:58;12.13;;;6.03;;
65315;SDS011;51920;53.952;10.292;2022-11-20T09:54:28;11.98;;;6.22;;
65315;SDS011;51920;53.952;10.292;2022-11-20T09:57:00;14.10;;;7.22;;
65315;SDS011;51920;53.952;10.292;2022-11-20T09:59:40;12.82;;;6.63;;
65315;SDS011;51920;53.952;10.292;2022-11-20T10:04:49;8.88;;;5.25;;
65315;SDS011;51920;53.952;10.292;2022-11-20T10:07:21;9.70;;;5.57;;
65315;SDS011;51920;53.952;10.292;2022-11-20T10:09:52;8.35;;;5.38;;
65315;SDS011;51920;53.952;10.292;2022-11-20T10:17:58;7.88;;;5.00;;
65315;SDS011;51920;53.952;10.292;2022-11-20T10:31:37;6.63;;;3.70;;
65315;SDS011;51920;53.952;10.292;2022-11-20T10:34:05;5.93;;;3.90;;
65315;SDS011;51920;53.952;10.292;2022-11-20T10:36:55;6.13;;;3.85;;
65315;SDS011;51920;53.952;10.292;2022-11-20T10:42:08;7.03;;;4.10;;
65315;SDS011;51920;53.952;10.292;2022-11-20T10:44:39;5.60;;;3.90;;
65315;SDS011;51920;53.952;10.292;2022-11-20T10:47:25;5.85;;;3.75;;
65315;SDS011;51920;53.952;10.292;2022-11-20T10:49:53;5.55;;;3.53;;
65315;SDS011;51920;53.952;10.292;2022-11-20T10:55:39;9.20;;;6.40;;
65315;SDS011;51920;53.952;10.292;2022-11-20T10:58:13;6.40;;;4.28;;
65315;SDS011;51920;53.952;10.292;2022-11-20T11:00:45;6.32;;;3.90;;
65315;SDS011;51920;53.952;10.292;2022-11-20T11:05:59;6.45;;;4.20;;
65315;SDS011;51920;53.952;10.292;2022-11-20T11:08:38;9.00;;;4.95;;
65315;SDS011;51920;53.952;10.292;2022-11-20T11:11:13;11.52;;;6.35;;
65315;SDS011;51920;53.952;10.292;2022-11-20T11:13:45;17.20;;;9.90;;
65315;SDS011;51920;53.952;10.292;2022-11-20T11:16:21;18.33;;;10.65;;
65315;SDS011;51920;53.952;10.292;2022-11-20T11:18:48;8.97;;;5.30;;
65315;SDS011;51920;53.952;10.292;2022-11-20T11:21:19;9.40;;;6.03;;
65315;SDS011;51920;53.952;10.292;2022-11-20T11:23:48;6.80;;;5.17;;
65315;SDS011;51920;53.952;10.292;2022-11-20T11:26:23;8.00;;;5.15;;
65315;SDS011;51920;53.952;10.292;2022-11-20T11:28:57;6.53;;;4.72;;
65315;SDS011;51920;53.952;10.292;2022-11-20T11:31:30;5.00;;;3.28;;
65315;SDS011;51920;53.952;10.292;2022-11-20T11:36:41;5.60;;;3.30;;
65315;SDS011;51920;53.952;10.292;2022-11-20T11:39:26;4.75;;;3.53;;
65315;SDS011;51920;53.952;10.292;2022-11-20T11:41:53;6.45;;;4.57;;
65315;SDS011;51920;53.952;10.292;2022-11-20T11:44:20;6.47;;;4.23;;
65315;SDS011;51920;53.952;10.292;2022-11-20T11:47:29;7.38;;;4.63;;
65315;SDS011;51920;53.952;10.292;2022-11-20T11:52:38;7.53;;;4.50;;
65315;SDS011;51920;53.952;10.292;2022-11-20T11:55:07;5.55;;;3.40;;
65315;SDS011;51920;53.952;10.292;2022-11-20T11:57:47;5.27;;;3.67;;
65315;SDS011;51920;53.952;10.292;2022-11-20T12:00:22;5.32;;;3.70;;
65315;SDS011;51920;53.952;10.292;2022-11-20T12:08:42;9.60;;;5.60;;
65315;SDS011;51920;53.952;10.292;2022-11-20T12:14:04;5.75;;;3.75;;
65315;SDS011;51920;53.952;10.292;2022-11-20T12:16:44;5.60;;;3.63;;
65315;SDS011;51920;53.952;10.292;2022-11-20T12:19:11;6.73;;;3.80;;
65315;SDS011;51920;53.952;10.292;2022-11-20T12:27:09;5.85;;;3.28;;
65315;SDS011;51920;53.952;10.292;2022-11-20T12:29:49;7.03;;;3.60;;
65315;SDS011;51920;53.952;10.292;2022-11-20T12:38:39;5.10;;;3.50;;
65315;SDS011;51920;53.952;10.292;2022-11-20T12:41:15;5.45;;;3.50;;
65315;SDS011;51920;53.952;10.292;2022-11-20T12:50:04;6.40;;;3.80;;
65315;SDS011;51920;53.952;10.292;2022-11-20T12:53:44;5.68;;;3.45;;
65315;SDS011;51920;53.952;10.292;2022-11-20T12:56:17;5.20;;;3.90;;
65315;SDS011;51920;53.952;10.292;2022-11-20T13:01:47;6.40;;;3.47;;
65315;SDS011;51920;53.952;10.292;2022-11-20T13:06:59;4.22;;;3.00;;
65315;SDS011;51920;53.952;10.292;2022-11-20T13:09:27;4.80;;;3.00;;
65315;SDS011;51920;53.952;10.292;2022-11-20T13:12:04;5.70;;;3.20;;
65315;SDS011;51920;53.952;10.292;2022-11-20T13:14:58;8.43;;;4.00;;
65315;SDS011;51920;53.952;10.292;2022-11-20T13:17:45;4.57;;;3.08;;
65315;SDS011;51920;53.952;10.292;2022-11-20T13:20:18;4.20;;;3.28;;
65315;SDS011;51920;53.952;10.292;2022-11-20T13:22:48;3.83;;;2.63;;
65315;SDS011;51920;53.952;10.292;2022-11-20T13:25:26;3.28;;;2.55;;
65315;SDS011;51920;53.952;10.292;2022-11-20T13:27:56;3.70;;;2.63;;
65315;SDS011;51920;53.952;10.292;2022-11-20T13:30:48;3.53;;;2.67;;
65315;SDS011;51920;53.952;10.292;2022-11-20T13:33:27;3.65;;;2.70;;
65315;SDS011;51920;53.952;10.292;2022-11-20T13:38:25;4.00;;;2.95;;
65315;SDS011;51920;53.952;10.292;2022-11-20T13:46:04;4.53;;;3.30;;
65315;SDS011;51920;53.952;10.292;2022-11-20T13:48:32;5.55;;;3.35;;
65315;SDS011;51920;53.952;10.292;2022-11-20T13:56:24;4.53;;;3.10;;
65315;SDS011;51920;53.952;10.292;2022-11-20T14:02:15;6.53;;;4.07;;
65315;SDS011;51920;53.952;10.292;2022-11-20T14:04:45;6.82;;;4.00;;
65315;SDS011;51920;53.952;10.292;2022-11-20T14:07:13;8.20;;;4.93;;
65315;SDS011;51920;53.952;10.292;2022-11-20T14:09:38;6.90;;;4.60;;
65315;SDS011;51920;53.952;10.292;2022-11-20T14:12:12;6.00;;;4.10;;
65315;SDS011;51920;53.952;10.292;2022-11-20T14:14:47;5.40;;;3.67;;
65315;SDS011;51920;53.952;10.292;2022-11-20T14:17:21;5.60;;;4.10;;
65315;SDS011;51920;53.952;10.292;2022-11-20T14:19:57;6.10;;;4.25;;
65315;SDS011;51920;53.952;10.292;2022-11-20T14:22:26;7.60;;;5.37;;
65315;SDS011;51920;53.952;10.292;2022-11-20T14:27:37;7.20;;;4.90;;
65315;SDS011;51920;53.952;10.292;2022-11-20T14:30:04;6.45;;;4.00;;
65315;SDS011;51920;53.952;10.292;2022-11-20T14:32:30;5.20;;;3.95;;
65315;SDS011;51920;53.952;10.292;2022-11-20T14:34:57;6.63;;;3.67;;
65315;SDS011;51920;53.952;10.292;2022-11-20T14:37:33;5.63;;;3.45;;
65315;SDS011;51920;53.952;10.292;2022-11-20T14:40:01;4.68;;;3.30;;
65315;SDS011;51920;53.952;10.292;2022-11-20T14:42:27;6.57;;;3.60;;
65315;SDS011;51920;53.952;10.292;2022-11-20T14:44:59;6.72;;;3.72;;
65315;SDS011;51920;53.952;10.292;2022-11-20T14:47:26;8.77;;;4.63;;
65315;SDS011;51920;53.952;10.292;2022-11-20T14:49:54;7.60;;;4.93;;
65315;SDS011;51920;53.952;10.292;2022-11-20T14:52:24;11.97;;;5.73;;
65315;SDS011;51920;53.952;10.292;2022-11-20T14:54:52;12.07;;;6.95;;
65315;SDS011;51920;53.952;10.292;2022-11-20T14:57:28;13.70;;;8.65;;
65315;SDS011;51920;53.952;10.292;2022-11-20T15:02:46;14.40;;;9.05;;
65315;SDS011;51920;53.952;10.292;2022-11-20T15:05:14;13.63;;;8.47;;
65315;SDS011;51920;53.952;10.292;2022-11-20T15:07:42;12.80;;;7.82;;
65315;SDS011;51920;53.952;10.292;2022-11-20T15:10:21;11.80;;;7.28;;
65315;SDS011;51920;53.952;10.292;2022-11-20T15:12:54;12.98;;;6.47;;
65315;SDS011;51920;53.952;10.292;2022-11-20T15:17:56;9.43;;;5.30;;
65315;SDS011;51920;53.952;10.292;2022-11-20T15:20:26;10.77;;;5.53;;
65315;SDS011;51920;53.952;10.292;2022-11-20T15:22:55;12.82;;;6.85;;
65315;SDS011;51920;53.952;10.292;2022-11-20T15:25:20;14.13;;;8.27;;
65315;SDS011;51920;53.952;10.292;2022-11-20T15:27:45;13.37;;;7.57;;
65315;SDS011;51920;53.952;10.292;2022-11-20T15:30:16;12.70;;;7.80;;
65315;SDS011;51920;53.952;10.292;2022-11-20T15:32:43;16.20;;;9.70;;
65315;SDS011;51920;53.952;10.292;2022-11-20T15:35:10;17.25;;;9.15;;
65315;SDS011;51920;53.952;10.292;2022-11-20T15:37:36;20.10;;;11.40;;
65315;SDS011;51920;53.952;10.292;2022-11-20T15:40:02;19.90;;;10.93;;
65315;SDS011;51920;53.952;10.292;2022-11-20T15:42:28;19.38;;;11.40;;
65315;SDS011;51920;53.952;10.292;2022-11-20T15:45:03;14.63;;;8.55;;
65315;SDS011;51920;53.952;10.292;2022-11-20T15:47:33;12.97;;;7.63;;
65315;SDS011;51920;53.952;10.292;2022-11-20T15:50:00;11.68;;;7.70;;
65315;SDS011;51920;53.952;10.292;2022-11-20T15:52:26;12.48;;;8.38;;
65315;SDS011;51920;53.952;10.292;2022-11-20T15:54:52;12.90;;;7.30;;
65315;SDS011;51920;53.952;10.292;2022-11-20T15:57:17;11.23;;;7.13;;
65315;SDS011;51920;53.952;10.292;2022-11-20T16:00:02;10.82;;;7.05;;
65315;SDS011;51920;53.952;10.292;2022-11-20T16:02:35;13.48;;;8.10;;
65315;SDS011;51920;53.952;10.292;2022-11-20T16:05:01;18.57;;;9.63;;
65315;SDS011;51920;53.952;10.292;2022-11-20T16:07:26;18.97;;;9.57;;
65315;SDS011;51920;53.952;10.292;2022-11-20T16:09:51;20.77;;;11.20;;
65315;SDS011;51920;53.952;10.292;2022-11-20T16:12:17;31.80;;;16.73;;
65315;SDS011;51920;53.952;10.292;2022-11-20T16:15:02;34.08;;;18.20;;
65315;SDS011;51920;53.952;10.292;2022-11-20T16:18:07;31.70;;;17.70;;
65315;SDS011;51920;53.952;10.292;2022-11-20T16:20:35;40.35;;;18.45;;
65315;SDS011;51920;53.952;10.292;2022-11-20T16:23:00;41.87;;;20.93;;
65315;SDS011;51920;53.952;10.292;2022-11-20T16:25:26;46.07;;;21.40;;